Time;durP1;ratioP1;P1;durP2;ratioP2;P2;SDS_P1;SDS_P2;PMS_P1;PMS_P2;Temp;Humidity;BMP_temperature;BMP_pressure;BME280_temperature;BME280_humidity;BME280_pressure;Samples;Min_cycle;Max_cycle;Signal;HPM_P1;HPM_P2
2023/02/07 00:00:52;;;;;;;2.20;1.20;;;;;;;;;;10264515;28;20409;-87
2023/02/07 00:06:04;;;;;;;0.90;0.90;;;;;;;;;;10267090;28;20504;-87
2023/02/07 00:11:09;;;;;;;1.23;1.13;;;;;;;;;;10266406;28;20053;-86
2023/02/07 00:16:14;;;;;;;1.08;1.00;;;;;;;;;;10266625;28;20069;-87
2023/02/07 00:21:21;;;;;;;1.63;1.00;;;;;;;;;;10267171;28;20047;-89
2023/02/07 00:26:27;;;;;;;1.00;0.90;;;;;;;;;;10264696;28;20127;-88
2023/02/07 00:31:32;;;;;;;2.00;1.10;;;;;;;;;;10256490;28;20073;-88
2023/02/07 00:36:40;;;;;;;1.10;1.00;;;;;;;;;;10257238;28;20145;-87
2023/02/07 00:41:44;;;;;;;1.27;0.93;;;;;;;;;;10263205;28;20054;-84
2023/02/07 00:46:48;;;;;;;0.80;0.80;;;;;;;;;;10259960;28;20039;-84
2023/02/07 00:51:52;;;;;;;0.80;0.80;;;;;;;;;;10293356;28;20701;-87
2023/02/07 00:56:56;;;;;;;0.95;0.88;;;;;;;;;;10265149;28;20425;-86
2023/02/07 01:02:00;;;;;;;0.75;0.75;;;;;;;;;;10264683;28;20043;-86
2023/02/07 01:07:05;;;;;;;1.20;1.10;;;;;;;;;;10263666;28;20069;-87
2023/02/07 01:12:09;;;;;;;0.80;0.80;;;;;;;;;;10261491;28;20046;-89
2023/02/07 01:17:13;;;;;;;1.30;1.10;;;;;;;;;;10262416;28;20043;-89
2023/02/07 01:22:18;;;;;;;1.00;0.90;;;;;;;;;;10262239;28;20447;-90
2023/02/07 01:27:21;;;;;;;1.65;1.10;;;;;;;;;;10262801;28;20047;-87
2023/02/07 01:32:25;;;;;;;1.73;1.10;;;;;;;;;;10259725;28;20062;-88
2023/02/07 01:37:30;;;;;;;1.00;0.90;;;;;;;;;;10261008;28;20062;-86
2023/02/07 01:42:33;;;;;;;1.10;1.00;;;;;;;;;;10261323;28;20129;-87
2023/02/07 01:47:38;;;;;;;1.20;1.10;;;;;;;;;;10261381;28;20061;-84
2023/02/07 01:52:42;;;;;;;1.52;1.05;;;;;;;;;;10248865;28;20047;-84
2023/02/07 01:57:48;;;;;;;1.10;1.00;;;;;;;;;;10253975;28;20230;-84
2023/02/07 02:02:51;;;;;;;1.13;1.00;;;;;;;;;;10254688;28;20043;-85
2023/02/07 02:07:56;;;;;;;0.90;0.90;;;;;;;;;;10255046;28;20089;-84
2023/02/07 02:13:15;;;;;;;1.20;1.10;;;;;;;;;;10254950;28;20820;-85
2023/02/07 02:18:41;;;;;;;1.58;1.27;;;;;;;;;;10255068;28;20057;-84
2023/02/07 02:24:03;;;;;;;1.05;0.95;;;;;;;;;;10218951;28;20137;-84
2023/02/07 02:29:37;;;;;;;0.90;0.90;;;;;;;;;;10213603;28;20456;-84
2023/02/07 02:34:46;;;;;;;1.40;1.30;;;;;;;;;;10211433;28;20062;-83
2023/02/07 02:39:54;;;;;;;1.15;1.10;;;;;;;;;;10255786;28;20125;-84
2023/02/07 02:45:00;;;;;;;1.52;1.20;;;;;;;;;;10250041;28;20050;-84
2023/02/07 02:50:10;;;;;;;;;;;;;;;;;;10247507;28;20170;-83
2023/02/07 02:55:17;;;;;;;1.02;0.93;;;;;;;;;;10254695;28;19929;-84
2023/02/07 03:00:35;;;;;;;0.98;0.88;;;;;;;;;;10259887;28;20057;-90
2023/02/07 03:05:48;;;;;;;2.25;1.40;;;;;;;;;;10252206;28;20050;-86
2023/02/07 03:10:59;;;;;;;2.55;1.40;;;;;;;;;;10259943;28;20058;-86
2023/02/07 03:16:10;;;;;;;3.00;1.50;;;;;;;;;;10258855;28;20042;-87
2023/02/07 03:21:22;;;;;;;1.55;1.30;;;;;;;;;;10259219;28;20085;-86
2023/02/07 03:26:29;;;;;;;1.83;1.35;;;;;;;;;;10260966;28;20571;-86
2023/02/07 03:31:34;;;;;;;;;;;;;;;;;;10259072;28;20516;-87
2023/02/07 03:36:43;;;;;;;1.80;1.38;;;;;;;;;;10259080;28;19926;-89
2023/02/07 03:41:51;;;;;;;2.15;1.58;;;;;;;;;;10260283;28;20427;-86
2023/02/07 03:46:55;;;;;;;2.33;1.45;;;;;;;;;;10256135;28;20513;-86
2023/02/07 03:52:00;;;;;;;1.60;1.20;;;;;;;;;;10253860;28;20055;-90
2023/02/07 03:57:03;;;;;;;2.75;1.63;;;;;;;;;;10252061;28;20138;-85
2023/02/07 04:02:07;;;;;;;2.38;1.48;;;;;;;;;;10251592;28;20050;-84
2023/02/07 04:07:12;;;;;;;1.83;1.50;;;;;;;;;;10251667;28;20577;-84
2023/02/07 04:12:15;;;;;;;2.60;1.95;;;;;;;;;;10252113;28;20595;-83
2023/02/07 04:17:19;;;;;;;2.42;1.80;;;;;;;;;;10223914;28;20099;-84
2023/02/07 04:22:23;;;;;;;3.42;1.85;;;;;;;;;;10211602;28;20066;-84
2023/02/07 04:27:27;;;;;;;3.63;2.17;;;;;;;;;;10241783;28;20039;-89
2023/02/07 04:32:30;;;;;;;2.97;1.95;;;;;;;;;;10265865;28;20538;-88
2023/02/07 04:37:37;;;;;;;4.17;2.20;;;;;;;;;;10263134;28;20034;-84
2023/02/07 04:42:40;;;;;;;3.53;2.20;;;;;;;;;;10259485;28;20304;-84
2023/02/07 04:47:44;;;;;;;3.05;1.77;;;;;;;;;;10255935;28;20054;-84
2023/02/07 04:52:49;;;;;;;2.05;1.85;;;;;;;;;;10258895;28;20051;-84
2023/02/07 04:57:52;;;;;;;2.60;1.52;;;;;;;;;;10257221;28;20043;-84
2023/02/07 05:02:56;;;;;;;2.95;2.00;;;;;;;;;;10261860;28;20050;-86
2023/02/07 05:08:04;;;;;;;3.38;2.10;;;;;;;;;;10263921;28;20109;-90
2023/02/07 05:13:08;;;;;;;4.68;2.30;;;;;;;;;;10260433;28;20050;-84
2023/02/07 05:18:13;;;;;;;6.30;2.97;;;;;;;;;;10259484;28;20086;-84
2023/02/07 05:23:18;;;;;;;4.50;2.22;;;;;;;;;;10258530;28;20051;-84
2023/02/07 05:28:21;;;;;;;2.42;1.70;;;;;;;;;;10260864;28;20050;-84
2023/02/07 05:33:24;;;;;;;2.45;1.80;;;;;;;;;;10259980;28;20559;-83
2023/02/07 05:38:29;;;;;;;3.00;2.20;;;;;;;;;;10265245;28;20596;-84
2023/02/07 05:43:33;;;;;;;2.83;1.90;;;;;;;;;;10271226;28;20047;-82
2023/02/07 05:48:36;;;;;;;3.05;2.00;;;;;;;;;;10269322;28;20074;-85
2023/02/07 05:53:41;;;;;;;4.03;2.35;;;;;;;;;;10268935;28;20063;-85
2023/02/07 05:58:45;;;;;;;3.92;2.20;;;;;;;;;;10280047;28;20075;-87
2023/02/07 06:03:48;;;;;;;3.38;1.65;;;;;;;;;;10259696;28;20241;-85
2023/02/07 06:08:53;;;;;;;2.95;1.90;;;;;;;;;;10281746;28;20053;-85
2023/02/07 06:13:56;;;;;;;2.15;1.60;;;;;;;;;;10268976;28;20074;-86
2023/02/07 06:19:00;;;;;;;2.20;1.83;;;;;;;;;;10265690;28;20031;-85
2023/02/07 06:24:05;;;;;;;3.53;2.50;;;;;;;;;;10285562;28;20042;-84
2023/02/07 06:29:08;;;;;;;5.75;2.83;;;;;;;;;;10263402;28;20045;-82
2023/02/07 06:34:12;;;;;;;3.88;2.20;;;;;;;;;;10265160;28;20050;-84
2023/02/07 06:39:17;;;;;;;5.55;3.03;;;;;;;;;;10284201;28;20062;-84
2023/02/07 06:44:20;;;;;;;5.45;3.35;;;;;;;;;;10283307;28;20045;-84
2023/02/07 06:49:23;;;;;;;5.85;3.25;;;;;;;;;;10277371;28;20133;-84
2023/02/07 06:54:28;;;;;;;6.32;3.45;;;;;;;;;;10276008;28;20137;-87
2023/02/07 06:59:32;;;;;;;5.72;3.00;;;;;;;;;;10261448;28;20054;-84
2023/02/07 07:04:37;;;;;;;6.40;3.92;;;;;;;;;;10257378;28;20066;-84
2023/02/07 07:09:42;;;;;;;4.35;3.10;;;;;;;;;;10265243;28;20046;-84
2023/02/07 07:14:46;;;;;;;6.38;3.75;;;;;;;;;;10257217;28;20066;-85
2023/02/07 07:19:49;;;;;;;4.65;3.35;;;;;;;;;;10251716;28;20046;-84
2023/02/07 07:24:54;;;;;;;5.72;3.35;;;;;;;;;;10258591;28;20065;-84
2023/02/07 07:29:58;;;;;;;5.78;3.03;;;;;;;;;;10256693;28;20047;-83
2023/02/07 07:35:02;;;;;;;5.63;2.92;;;;;;;;;;10258509;28;20578;-83
2023/02/07 07:40:08;;;;;;;6.63;3.35;;;;;;;;;;10261857;28;20063;-83
2023/02/07 07:45:12;;;;;;;;;;;;;;;;;;10253688;28;20043;-83
2023/02/07 07:50:15;;;;;;;8.40;4.40;;;;;;;;;;10262708;28;19926;-85
2023/02/07 07:55:20;;;;;;;5.43;3.25;;;;;;;;;;10267670;28;20726;-83
2023/02/07 08:00:24;;;;;;;5.20;3.42;;;;;;;;;;10259700;28;20043;-85
2023/02/07 08:05:27;;;;;;;4.68;3.33;;;;;;;;;;10281177;28;20051;-87
2023/02/07 08:10:32;;;;;;;6.82;4.45;;;;;;;;;;10265313;28;20484;-86
2023/02/07 08:15:36;;;;;;;5.95;4.28;;;;;;;;;;10269476;28;20054;-85
2023/02/07 08:20:40;;;;;;;6.82;4.13;;;;;;;;;;10259035;28;20043;-86
2023/02/07 08:25:46;;;;;;;9.20;5.15;;;;;;;;;;10265393;28;20046;-86
2023/02/07 08:30:50;;;;;;;14.07;5.85;;;;;;;;;;10270423;28;20046;-88
2023/02/07 08:35:53;;;;;;;9.85;6.32;;;;;;;;;;10270204;28;20393;-87
2023/02/07 08:40:58;;;;;;;9.85;5.68;;;;;;;;;;10265449;28;20511;-86
2023/02/07 08:46:01;;;;;;;9.15;4.72;;;;;;;;;;10267790;28;20141;-85
2023/02/07 08:51:09;;;;;;;5.32;3.58;;;;;;;;;;10274451;28;20047;-86
2023/02/07 08:56:14;;;;;;;5.22;3.42;;;;;;;;;;10277436;28;20049;-86
2023/02/07 09:01:17;;;;;;;8.25;3.67;;;;;;;;;;10274567;28;20057;-86
2023/02/07 09:06:22;;;;;;;6.07;4.00;;;;;;;;;;10266639;28;20575;-86
2023/02/07 09:11:26;;;;;;;6.47;4.13;;;;;;;;;;10271833;28;20058;-85
2023/02/07 09:16:30;;;;;;;6.50;4.00;;;;;;;;;;10317442;23;20050;-84
2023/02/07 09:21:33;;;;;;;6.03;3.58;;;;;;;;;;10295344;28;20137;-83
2023/02/07 09:26:38;;;;;;;6.97;3.45;;;;;;;;;;10298599;28;20131;-86
2023/02/07 09:31:42;;;;;;;7.97;4.13;;;;;;;;;;10293797;28;20060;-84
2023/02/07 09:36:46;;;;;;;7.28;4.57;;;;;;;;;;10292783;28;20046;-83
2023/02/07 09:41:59;;;;;;;5.95;3.65;;;;;;;;;;10293078;28;20134;-84
2023/02/07 09:47:05;;;;;;;6.28;4.15;;;;;;;;;;10286933;28;20050;-83
2023/02/07 09:52:14;;;;;;;6.82;4.40;;;;;;;;;;10299347;28;20440;-84
2023/02/07 09:57:21;;;;;;;4.68;2.97;;;;;;;;;;10294097;28;20418;-83
2023/02/07 10:02:29;;;;;;;3.97;3.22;;;;;;;;;;10300158;28;20051;-83
2023/02/07 10:07:33;;;;;;;4.97;3.22;;;;;;;;;;10270622;28;20511;-83
2023/02/07 10:13:04;;;;;;;4.82;3.00;;;;;;;;;;10277446;28;20049;-83
2023/02/07 10:18:31;;;;;;;5.28;3.30;;;;;;;;;;10271271;28;20043;-82
2023/02/07 10:23:54;;;;;;;6.90;3.67;;;;;;;;;;10277020;28;20067;-82
2023/02/07 10:29:25;;;;;;;3.88;2.38;;;;;;;;;;10273461;28;20043;-83
2023/02/07 10:34:33;;;;;;;4.43;2.10;;;;;;;;;;10276103;28;20043;-81
2023/02/07 10:39:41;;;;;;;3.45;2.03;;;;;;;;;;10274983;28;20051;-81
2023/02/07 10:44:47;;;;;;;3.00;2.15;;;;;;;;;;10277504;28;20081;-82
2023/02/07 10:49:53;;;;;;;4.43;2.27;;;;;;;;;;10280582;28;20050;-81
2023/02/07 10:54:59;;;;;;;2.47;1.60;;;;;;;;;;10278916;28;20038;-81
2023/02/07 11:00:07;;;;;;;2.75;2.15;;;;;;;;;;10277053;28;20145;-81
2023/02/07 11:05:31;;;;;;;2.40;1.60;;;;;;;;;;10277211;28;20687;-81
2023/02/07 11:10:38;;;;;;;1.98;1.40;;;;;;;;;;10277485;28;20046;-81
2023/02/07 11:15:51;;;;;;;2.17;1.50;;;;;;;;;;10277899;28;20145;-81
2023/02/07 11:20:55;;;;;;;3.60;2.38;;;;;;;;;;10277222;28;20042;-81
2023/02/07 11:25:59;;;;;;;4.22;2.47;;;;;;;;;;10271231;28;20676;-81
2023/02/07 11:31:07;;;;;;;3.20;2.03;;;;;;;;;;10274948;28;20043;-81
2023/02/07 11:36:21;;;;;;;2.65;1.75;;;;;;;;;;10281867;28;20043;-81
2023/02/07 11:41:26;;;;;;;2.10;1.50;;;;;;;;;;10288790;28;20305;-81
2023/02/07 11:46:36;;;;;;;1.40;1.20;;;;;;;;;;10288326;28;20220;-81
2023/02/07 11:51:39;;;;;;;2.22;1.40;;;;;;;;;;10305862;28;20050;-81
2023/02/07 11:56:45;;;;;;;2.65;1.70;;;;;;;;;;10295007;28;20051;-81
2023/02/07 12:01:52;;;;;;;2.13;1.80;;;;;;;;;;10284516;28;20351;-82
2023/02/07 12:06:59;;;;;;;2.05;1.50;;;;;;;;;;10290504;28;20145;-81
2023/02/07 12:12:07;;;;;;;2.35;1.52;;;;;;;;;;10293964;28;20031;-83
2023/02/07 12:17:18;;;;;;;2.08;1.60;;;;;;;;;;10288023;28;20463;-81
2023/02/07 12:22:26;;;;;;;2.75;1.95;;;;;;;;;;10289344;28;20129;-81
2023/02/07 12:27:34;;;;;;;2.08;1.73;;;;;;;;;;10288959;28;20466;-82
2023/02/07 12:32:46;;;;;;;3.63;1.90;;;;;;;;;;10288133;28;20049;-81
2023/02/07 12:37:54;;;;;;;2.00;1.55;;;;;;;;;;10275237;28;20042;-81
2023/02/07 12:43:02;;;;;;;3.22;1.85;;;;;;;;;;10286950;28;20086;-81
2023/02/07 12:48:19;;;;;;;2.63;1.75;;;;;;;;;;10284014;28;20504;-80
2023/02/07 12:53:36;;;;;;;1.40;1.30;;;;;;;;;;10280519;28;20508;-81
2023/02/07 12:58:49;;;;;;;2.72;1.30;;;;;;;;;;10297062;28;20077;-81
2023/02/07 13:04:16;;;;;;;2.75;1.30;;;;;;;;;;10297045;28;20052;-81
2023/02/07 13:09:31;;;;;;;1.90;1.63;;;;;;;;;;10282636;28;20125;-81
2023/02/07 13:14:48;;;;;;;1.77;1.35;;;;;;;;;;10280577;28;20130;-82
2023/02/07 13:19:59;;;;;;;2.15;1.50;;;;;;;;;;10275619;28;20125;-81
2023/02/07 13:25:06;;;;;;;2.42;1.60;;;;;;;;;;10294891;28;20113;-81
2023/02/07 13:30:14;;;;;;;1.92;1.55;;;;;;;;;;10282154;28;20447;-82
2023/02/07 13:35:23;;;;;;;3.25;2.00;;;;;;;;;;10312520;28;20057;-81
2023/02/07 13:40:33;;;;;;;3.15;1.90;;;;;;;;;;10280202;28;20644;-81
2023/02/07 13:45:45;;;;;;;3.08;1.88;;;;;;;;;;10281153;28;20050;-81
2023/02/07 13:50:59;;;;;;;2.83;1.85;;;;;;;;;;10284159;28;20055;-81
2023/02/07 13:56:08;;;;;;;2.22;1.80;;;;;;;;;;10280350;28;20049;-81
2023/02/07 14:01:18;;;;;;;3.30;2.28;;;;;;;;;;10278388;28;20074;-81
2023/02/07 14:06:26;;;;;;;3.20;2.63;;;;;;;;;;10277186;28;20122;-81
2023/02/07 14:11:36;;;;;;;5.13;3.03;;;;;;;;;;10278398;28;20055;-82
2023/02/07 14:16:51;;;;;;;3.00;2.10;;;;;;;;;;10277022;28;20106;-82
2023/02/07 14:22:14;;;;;;;3.25;2.47;;;;;;;;;;10272284;28;20046;-81
2023/02/07 14:27:30;;;;;;;2.53;1.70;;;;;;;;;;10279439;28;20149;-81
2023/02/07 14:32:41;;;;;;;3.75;2.33;;;;;;;;;;10283443;28;20738;-82
2023/02/07 14:37:50;;;;;;;3.22;2.15;;;;;;;;;;10272495;28;20078;-80
2023/02/07 14:43:00;;;;;;;2.55;1.90;;;;;;;;;;10279990;28;20051;-82
2023/02/07 14:48:05;;;;;;;4.35;3.00;;;;;;;;;;10278788;28;20047;-81
2023/02/07 14:53:14;;;;;;;5.43;2.88;;;;;;;;;;10279455;28;20451;-81
2023/02/07 14:58:27;;;;;;;5.57;2.92;;;;;;;;;;10280700;28;20062;-81
2023/02/07 15:03:31;;;;;;;4.30;2.70;;;;;;;;;;10278178;28;20476;-81
2023/02/07 15:08:38;;;;;;;;;;;;;;;;;;10279101;28;20093;-81
2023/02/07 15:13:43;;;;;;;5.35;3.30;;;;;;;;;;10268422;28;20379;-81
2023/02/07 15:18:49;;;;;;;5.30;3.07;;;;;;;;;;10276795;28;20127;-81
2023/02/07 15:23:58;;;;;;;6.13;3.55;;;;;;;;;;10276366;28;20043;-82
2023/02/07 15:29:03;;;;;;;3.53;2.80;;;;;;;;;;10276455;28;20047;-81
2023/02/07 15:34:14;;;;;;;4.03;2.47;;;;;;;;;;10277236;28;20049;-83
2023/02/07 15:39:22;;;;;;;3.22;2.30;;;;;;;;;;10279231;28;20055;-82
2023/02/07 15:44:28;;;;;;;3.85;2.55;;;;;;;;;;10278283;28;20129;-82
2023/02/07 15:49:33;;;;;;;;;;;;;;;;;;10278225;28;20058;-82
2023/02/07 15:54:43;;;;;;;3.35;2.22;;;;;;;;;;10278990;28;19961;-83
2023/02/07 15:59:49;;;;;;;3.47;2.30;;;;;;;;;;10279330;28;20043;-82
2023/02/07 16:04:54;;;;;;;3.92;2.75;;;;;;;;;;10276600;28;20292;-82
2023/02/07 16:10:17;;;;;;;3.92;2.40;;;;;;;;;;10278798;28;20097;-82
2023/02/07 16:15:26;;;;;;;2.53;1.85;;;;;;;;;;10276870;28;20503;-82
2023/02/07 16:20:33;;;;;;;2.47;1.98;;;;;;;;;;10277540;28;20051;-82
2023/02/07 16:25:41;;;;;;;3.28;2.17;;;;;;;;;;10286738;28;20046;-82
2023/02/07 16:30:44;;;;;;;3.58;1.85;;;;;;;;;;10285426;28;20047;-83
2023/02/07 16:35:48;;;;;;;3.22;1.83;;;;;;;;;;10285884;28;20054;-82
2023/02/07 16:40:53;;;;;;;3.40;2.30;;;;;;;;;;10282707;28;20047;-81
2023/02/07 16:45:56;;;;;;;3.55;2.38;;;;;;;;;;10293276;28;20039;-82
2023/02/07 16:51:00;;;;;;;6.32;3.55;;;;;;;;;;10292859;28;20050;-82
2023/02/07 16:56:05;;;;;;;4.15;2.70;;;;;;;;;;10286397;28;20066;-82
2023/02/07 17:01:15;;;;;;;5.40;3.13;;;;;;;;;;10283704;28;20046;-82
2023/02/07 17:06:20;;;;;;;6.07;3.63;;;;;;;;;;10289144;28;20063;-81
2023/02/07 17:11:26;;;;;;;3.53;2.47;;;;;;;;;;10280140;28;20137;-81
2023/02/07 17:16:29;;;;;;;4.40;2.92;;;;;;;;;;10278188;28;20078;-80
2023/02/07 17:21:34;;;;;;;5.22;3.13;;;;;;;;;;10284342;28;20046;-81
2023/02/07 17:26:42;;;;;;;6.07;3.65;;;;;;;;;;10312685;23;20175;-85
2023/02/07 17:31:46;;;;;;;5.22;3.65;;;;;;;;;;10321720;28;20054;-85
2023/02/07 17:36:50;;;;;;;6.72;4.32;;;;;;;;;;10303108;28;20056;-85
2023/02/07 17:41:55;;;;;;;8.00;4.40;;;;;;;;;;10304080;28;20056;-85
2023/02/07 17:46:58;;;;;;;7.20;4.85;;;;;;;;;;10302527;28;20699;-88
2023/02/07 17:52:02;;;;;;;10.23;5.43;;;;;;;;;;10318190;28;20046;-83
2023/02/07 17:57:08;;;;;;;10.57;5.82;;;;;;;;;;10300505;28;20042;-83
2023/02/07 18:02:11;;;;;;;8.13;4.82;;;;;;;;;;10300097;28;20511;-83
2023/02/07 18:07:14;;;;;;;8.48;5.05;;;;;;;;;;10301010;28;20052;-85
2023/02/07 18:12:19;;;;;;;11.90;6.07;;;;;;;;;;10303066;28;20047;-84
2023/02/07 18:17:24;;;;;;;15.43;7.40;;;;;;;;;;10307431;28;20154;-86
2023/02/07 18:22:27;;;;;;;11.80;6.32;;;;;;;;;;10296739;28;20046;-85
2023/02/07 18:27:35;;;;;;;12.82;6.70;;;;;;;;;;10297455;28;20515;-86
2023/02/07 18:32:39;;;;;;;14.35;8.38;;;;;;;;;;10298567;28;20080;-83
2023/02/07 18:37:42;;;;;;;12.38;7.38;;;;;;;;;;10269681;28;20101;-83
2023/02/07 18:42:47;;;;;;;12.60;7.05;;;;;;;;;;10275805;28;20069;-83
2023/02/07 18:47:51;;;;;;;16.02;7.70;;;;;;;;;;10269077;28;20047;-83
2023/02/07 18:52:56;;;;;;;11.30;6.95;;;;;;;;;;10285832;28;20252;-85
2023/02/07 18:58:01;;;;;;;10.77;6.22;;;;;;;;;;10300636;28;20667;-84
2023/02/07 19:03:05;;;;;;;11.73;5.75;;;;;;;;;;10302322;28;20065;-85
2023/02/07 19:08:08;;;;;;;11.68;6.32;;;;;;;;;;10298117;28;20053;-85
2023/02/07 19:13:13;;;;;;;11.52;6.43;;;;;;;;;;10305704;28;20042;-86
2023/02/07 19:18:17;;;;;;;24.00;9.05;;;;;;;;;;10309157;28;20750;-85
2023/02/07 19:23:20;;;;;;;21.55;10.80;;;;;;;;;;10317275;28;20055;-83
2023/02/07 19:28:25;;;;;;;21.85;10.02;;;;;;;;;;10298732;28;20054;-83
2023/02/07 19:33:29;;;;;;;19.50;9.90;;;;;;;;;;10303754;28;20050;-86
2023/02/07 19:44:27;;;;;;;17.95;8.02;;;;;;;;;;5727835;26;20050;-79
2023/02/07 19:49:50;;;;;;;19.83;8.68;;;;;;;;;;10288455;28;20044;-79
2023/02/07 19:55:20;;;;;;;18.35;8.35;;;;;;;;;;10264017;28;20050;-79
2023/02/07 20:00:44;;;;;;;22.17;9.05;;;;;;;;;;10145655;28;20052;-79
2023/02/07 20:05:52;;;;;;;17.27;8.40;;;;;;;;;;10283986;28;20042;-79
2023/02/07 20:11:29;;;;;;;25.58;11.55;;;;;;;;;;10282639;28;20042;-79
2023/02/07 20:16:54;;;;;;;19.75;9.30;;;;;;;;;;10317407;28;20046;-79
2023/02/07 20:22:13;;;;;;;17.27;8.57;;;;;;;;;;10306498;28;20053;-79
2023/02/07 20:27:21;;;;;;;25.63;10.40;;;;;;;;;;10308762;28;20039;-79
2023/02/07 20:32:49;;;;;;;25.35;10.98;;;;;;;;;;10306892;28;20046;-79
2023/02/07 20:37:53;;;;;;;24.95;10.02;;;;;;;;;;10301769;28;20414;-79
2023/02/07 20:42:59;;;;;;;;;;;;;;;;;;10315837;28;20104;-79
2023/02/07 20:48:24;;;;;;;23.35;9.45;;;;;;;;;;10304898;28;20326;-79
2023/02/07 20:53:33;;;;;;;13.25;6.47;;;;;;;;;;10297860;28;20418;-79
2023/02/07 20:58:50;;;;;;;13.77;6.47;;;;;;;;;;10299461;28;20054;-79
2023/02/07 21:04:01;;;;;;;14.80;7.13;;;;;;;;;;10312658;28;20046;-79
2023/02/07 21:09:10;;;;;;;14.95;7.38;;;;;;;;;;10294489;28;20298;-79
2023/02/07 21:14:28;;;;;;;16.60;8.48;;;;;;;;;;10284757;28;20053;-79
2023/02/07 21:19:39;;;;;;;11.75;6.80;;;;;;;;;;10312233;28;20121;-79
2023/02/07 21:25:07;;;;;;;16.77;7.38;;;;;;;;;;10304544;28;20153;-79
2023/02/07 21:30:17;;;;;;;14.80;7.28;;;;;;;;;;10312338;28;20100;-79
2023/02/07 21:35:35;;;;;;;13.05;6.80;;;;;;;;;;10295548;28;20122;-79
2023/02/07 21:40:43;;;;;;;12.45;7.07;;;;;;;;;;10273405;28;20046;-79
2023/02/07 21:46:16;;;;;;;10.63;6.35;;;;;;;;;;10303757;28;20307;-79
2023/02/07 21:51:23;;;;;;;13.25;7.18;;;;;;;;;;10310490;28;20057;-79
2023/02/07 21:56:34;;;;;;;15.85;7.68;;;;;;;;;;10292149;28;20050;-79
2023/02/07 22:01:46;;;;;;;15.98;7.85;;;;;;;;;;10311579;28;20046;-79
2023/02/07 22:06:54;;;;;;;12.77;6.35;;;;;;;;;;10310520;28;20049;-79
2023/02/07 22:12:02;;;;;;;11.38;6.22;;;;;;;;;;10309525;28;20054;-79
2023/02/07 22:17:06;;;;;;;12.65;6.85;;;;;;;;;;10310743;28;20089;-79
2023/02/07 22:22:11;;;;;;;11.73;6.63;;;;;;;;;;10310076;28;20050;-78
2023/02/07 22:27:16;;;;;;;12.65;6.50;;;;;;;;;;10308945;28;20046;-78
2023/02/07 22:32:20;;;;;;;14.07;7.00;;;;;;;;;;10309657;28;20542;-79
2023/02/07 22:37:25;;;;;;;8.73;5.63;;;;;;;;;;10308935;28;20457;-79
2023/02/07 22:42:35;;;;;;;9.90;5.43;;;;;;;;;;10282037;28;20046;-79
2023/02/07 22:47:50;;;;;;;9.98;5.80;;;;;;;;;;10291577;28;20045;-79
2023/02/07 22:53:01;;;;;;;11.32;5.65;;;;;;;;;;10308816;28;20503;-79
2023/02/07 23:03:26;;;;;;;8.88;4.72;;;;;;;;;;10290153;28;20050;-79
2023/02/07 23:08:31;;;;;;;12.07;5.13;;;;;;;;;;10309100;28;20069;-79
2023/02/07 23:13:46;;;;;;;10.65;5.43;;;;;;;;;;10289797;28;20615;-79
2023/02/07 23:18:56;;;;;;;10.55;5.25;;;;;;;;;;10308139;28;20042;-79
2023/02/07 23:24:05;;;;;;;11.55;6.10;;;;;;;;;;10307401;28;20042;-79
2023/02/07 23:29:18;;;;;;;12.38;6.25;;;;;;;;;;10307334;28;20054;-79
2023/02/07 23:34:49;;;;;;;11.30;5.53;;;;;;;;;;10288747;28;20062;-79
2023/02/07 23:40:20;;;;;;;12.75;5.45;;;;;;;;;;10275578;28;20314;-79
2023/02/07 23:45:30;;;;;;;10.30;5.65;;;;;;;;;;10176922;28;20139;-80
2023/02/07 23:50:57;;;;;;;12.23;6.03;;;;;;;;;;10306523;28;20129;-79
2023/02/07 23:56:06;;;;;;;10.55;5.65;;;;;;;;;;10296257;28;20536;-79
